Home > Products > Valid Products > TAF

000
FTUS45 KGJT 222324
TAFGJT
TAF
KGJT 222324Z 2300/2324 28005KT P6SM VCSH OVC080
      TEMPO 2300/2303 5SM -SHRA OVC040
     FM230300 07009KT P6SM OVC060
     FM230700 33007KT P6SM VCSH BKN050
      TEMPO 2307/2311 4SM -RASN BR BKN025 OVC040
     FM231100 32006KT P6SM VCSH SCT030 BKN040
     FM231800 31010KT P6SM SCT070 SCT120=



000
FTUS45 KGJT 221740
TAFGJT
TAF
KGJT 221740Z 2218/2318 11010KT P6SM SCT150 BKN250
     FM222100 28005KT P6SM OVC120
     FM230100 05008KT P6SM VCSH SCT050 OVC090
     FM230700 33007KT P6SM VCSH BKN050
      TEMPO 2307/2311 4SM -SN BR BKN025 OVC040
     FM231100 32006KT P6SM VCSH SCT030 BKN040=



000
FTUS45 KGJT 221740
TAFGJT
TAF
KGJT 221740Z 2218/2318 11010KT P6SM SCT150 BKN250
     FM222100 28005KT P6SM OVC120
     FM230100 05008KT P6SM VCSH SCT050 OVC090
     FM230700 33007KT P6SM VCSH BKN050
      TEMPO 2307/2311 4SM -SN BR BKN025 OVC040
     FM231100 32006KT P6SM VCSH SCT030 BKN040=



000
FTUS45 KGJT 221138
TAFGJT
TAF
KGJT 221138Z 2212/2312 11004KT P6SM SCT250
     FM221600 12005KT P6SM FEW100 BKN150
     FM222100 28005KT P6SM OVC100
     FM230100 05008KT P6SM VCSH SCT050 OVC070
     FM230800 33004KT P6SM VCSH BKN070 OVC090=



000
FTUS45 KGJT 221138
TAFGJT
TAF
KGJT 221138Z 2212/2312 11004KT P6SM SCT250
     FM221600 12005KT P6SM FEW100 BKN150
     FM222100 28005KT P6SM OVC100
     FM230100 05008KT P6SM VCSH SCT050 OVC070
     FM230800 33004KT P6SM VCSH BKN070 OVC090=



000
FTUS45 KGJT 220540
TAFGJT
TAF
KGJT 220540Z 2206/2306 08004KT P6SM SCT250
     FM221500 12005KT P6SM BKN150
     FM222100 28005KT P6SM OVC100
     FM230100 05008KT P6SM VCSH SCT050 OVC070=



000
FTUS45 KGJT 220540
TAFGJT
TAF
KGJT 220540Z 2206/2306 08004KT P6SM SCT250
     FM221500 12005KT P6SM BKN150
     FM222100 28005KT P6SM OVC100
     FM230100 05008KT P6SM VCSH SCT050 OVC070=



000
FTUS45 KGJT 212333
TAFGJT
TAF
KGJT 212333Z 2200/2224 30004KT P6SM FEW150 SCT250
     FM220600 11005KT P6SM SCT200
     FM221500 12005KT P6SM BKN150
     FM222100 28005KT P6SM OVC100=



000
FTUS45 KGJT 212333
TAFGJT
TAF
KGJT 212333Z 2200/2224 30004KT P6SM FEW150 SCT250
     FM220600 11005KT P6SM SCT200
     FM221500 12005KT P6SM BKN150
     FM222100 28005KT P6SM OVC100=



000
FTUS45 KGJT 211727
TAFGJT
TAF
KGJT 211727Z 2118/2218 14007KT P6SM FEW150 SCT250
     FM212000 32004KT P6SM FEW150 SCT250
     FM220100 06003KT P6SM SCT120 BKN250
     FM220600 09005KT P6SM SCT120 BKN200
     FM221200 14008KT P6SM BKN120=



000
FTUS45 KGJT 211727
TAFGJT
TAF
KGJT 211727Z 2118/2218 14007KT P6SM FEW150 SCT250
     FM212000 32004KT P6SM FEW150 SCT250
     FM220100 06003KT P6SM SCT120 BKN250
     FM220600 09005KT P6SM SCT120 BKN200
     FM221200 14008KT P6SM BKN120=



000
FTUS45 KGJT 211130
TAFGJT
TAF
KGJT 211130Z 2112/2212 09005KT P6SM FEW090 SCT200
     FM211600 13005KT P6SM SCT090 BKN200
     FM212000 32004KT P6SM FEW100 BKN200
     FM220100 06003KT P6SM BKN200
     FM220600 09005KT P6SM FEW100 BKN200=



000
FTUS45 KGJT 211130
TAFGJT
TAF
KGJT 211130Z 2112/2212 09005KT P6SM FEW090 SCT200
     FM211600 13005KT P6SM SCT090 BKN200
     FM212000 32004KT P6SM FEW100 BKN200
     FM220100 06003KT P6SM BKN200
     FM220600 09005KT P6SM FEW100 BKN200=



000
FTUS45 KGJT 210526
TAFGJT
TAF
KGJT 210526Z 2106/2206 10003KT P6SM BKN070 OVC090
     FM210900 11007KT P6SM SCT090 BKN200
     FM211900 32004KT P6SM FEW100 BKN200
     FM220100 06003KT P6SM BKN200=



000
FTUS45 KGJT 210526
TAFGJT
TAF
KGJT 210526Z 2106/2206 10003KT P6SM BKN070 OVC090
     FM210900 11007KT P6SM SCT090 BKN200
     FM211900 32004KT P6SM FEW100 BKN200
     FM220100 06003KT P6SM BKN200=



000
FTUS45 KGJT 210248 AAC
TAFGJT
TAF AMD
KGJT 210248Z 2103/2124 06005KT P6SM OVC070
     FM210600 11007KT P6SM SCT200
     FM211900 32004KT P6SM BKN200=



000
FTUS45 KGJT 210248 AAC
TAFGJT
TAF AMD
KGJT 210248Z 2103/2124 06005KT P6SM OVC070
     FM210600 11007KT P6SM SCT200
     FM211900 32004KT P6SM BKN200=



000
FTUS45 KGJT 202320
TAFGJT
TAF
KGJT 202320Z 2100/2124 32004KT P6SM SCT060 OVC100
     FM210200 06005KT P6SM SCT100
     FM210600 11007KT P6SM SCT200
     FM211900 32004KT P6SM BKN200=



000
FTUS45 KGJT 202320
TAFGJT
TAF
KGJT 202320Z 2100/2124 32004KT P6SM SCT060 OVC100
     FM210200 06005KT P6SM SCT100
     FM210600 11007KT P6SM SCT200
     FM211900 32004KT P6SM BKN200=



000
FTUS45 KGJT 201728
TAFGJT
TAF
KGJT 201728Z 2018/2118 13006KT P6SM SCT110 BKN200
     FM201900 32004KT P6SM SCT100 BKN150
     FM210200 06005KT P6SM SCT100
     FM210600 11007KT P6SM SCT200=



000
FTUS45 KGJT 201728
TAFGJT
TAF
KGJT 201728Z 2018/2118 13006KT P6SM SCT110 BKN200
     FM201900 32004KT P6SM SCT100 BKN150
     FM210200 06005KT P6SM SCT100
     FM210600 11007KT P6SM SCT200=



000
FTUS45 KGJT 201134
TAFGJT
TAF
KGJT 201134Z 2012/2112 11006KT P6SM BKN200
     FM201600 15005KT P6SM FEW120 BKN200
     FM201900 32004KT P6SM SCT100 BKN150
     FM210200 06005KT P6SM SCT100
     FM210600 11007KT P6SM SCT100=



000
FTUS45 KGJT 201134
TAFGJT
TAF
KGJT 201134Z 2012/2112 11006KT P6SM BKN200
     FM201600 15005KT P6SM FEW120 BKN200
     FM201900 32004KT P6SM SCT100 BKN150
     FM210200 06005KT P6SM SCT100
     FM210600 11007KT P6SM SCT100=



000
FTUS45 KGJT 200533
TAFGJT
TAF
KGJT 200533Z 2006/2106 10005KT P6SM BKN200
     FM201200 15006KT P6SM BKN200
     FM201900 32004KT P6SM SCT100 BKN150
     FM210200 06005KT P6SM BKN200=



000
FTUS45 KGJT 200533
TAFGJT
TAF
KGJT 200533Z 2006/2106 10005KT P6SM BKN200
     FM201200 15006KT P6SM BKN200
     FM201900 32004KT P6SM SCT100 BKN150
     FM210200 06005KT P6SM BKN200=



    US Dept of Commerce
    National Oceanic and Atmospheric Administration
    National Weather Service
    1325 East West Highway
    Silver Spring, MD 20910
    Page Author: NWS Internet Services Team
Disclaimer
Information Quality
Credits
Glossary
Privacy Policy
Freedom of Information Act (FOIA)
About Us
Career Opportunities